createdAt,value
2018-04-18T00:00:10.582Z,13.33
2018-04-18T00:01:16.097Z,13.36
2018-04-18T00:02:21.598Z,13.44
2018-04-18T00:03:27.113Z,13.22
2018-04-18T00:04:32.634Z,13.36
2018-04-18T00:05:38.141Z,13.38
2018-04-18T00:06:43.668Z,13.37
2018-04-18T00:07:49.169Z,13.24
2018-04-18T00:08:54.683Z,13.25
2018-04-18T00:10:00.197Z,13.21
2018-04-18T00:11:05.711Z,13.30
2018-04-18T00:12:11.244Z,13.30
2018-04-18T00:13:16.740Z,13.40
2018-04-18T00:14:22.245Z,13.36
2018-04-18T00:15:27.761Z,13.29
2018-04-18T00:16:33.278Z,13.22
2018-04-18T00:17:38.789Z,13.21
2018-04-18T00:18:44.298Z,13.17
2018-04-18T00:19:49.818Z,13.14
2018-04-18T00:20:55.327Z,13.15
2018-04-18T00:22:00.840Z,13.14
2018-04-18T00:23:06.357Z,13.15
2018-04-18T00:24:11.872Z,13.09
2018-04-18T00:25:17.390Z,13.14
2018-04-18T00:26:22.903Z,13.09
2018-04-18T00:27:28.409Z,13.06
2018-04-18T00:28:33.923Z,13.02
2018-04-18T00:29:39.433Z,13.09
2018-04-18T00:30:44.949Z,13.07
2018-04-18T00:31:50.463Z,13.00
2018-04-18T00:32:55.978Z,13.02
2018-04-18T00:34:01.488Z,12.96
2018-04-18T00:35:06.998Z,12.96
2018-04-18T00:36:12.522Z,13.00
2018-04-18T00:37:18.071Z,12.99
2018-04-18T00:38:23.551Z,13.02
2018-04-18T00:39:29.052Z,12.96
2018-04-18T00:40:34.579Z,12.95
2018-04-18T00:41:40.090Z,12.93
2018-04-18T00:42:45.598Z,12.97
2018-04-18T00:43:51.110Z,12.87
2018-04-18T00:44:56.623Z,12.92
2018-04-18T00:46:02.142Z,12.89
2018-04-18T00:47:07.647Z,12.89
2018-04-18T00:48:13.158Z,12.82
2018-04-18T00:49:18.670Z,12.85
2018-04-18T00:50:24.184Z,12.82
2018-04-18T00:51:29.711Z,12.79
2018-04-18T00:52:35.221Z,12.75
2018-04-18T00:53:40.729Z,12.79
2018-04-18T00:54:46.320Z,12.75
2018-04-18T00:55:51.752Z,12.74
2018-04-18T00:56:57.264Z,12.70
2018-04-18T00:58:02.828Z,12.67
2018-04-18T00:59:08.290Z,12.69
2018-04-18T01:00:13.803Z,12.60
2018-04-18T01:01:19.315Z,12.64
2018-04-18T01:02:24.858Z,12.62
2018-04-18T01:03:30.340Z,12.56
2018-04-18T01:04:35.862Z,12.60
2018-04-18T01:05:41.369Z,12.60
2018-04-18T01:06:46.892Z,12.60
2018-04-18T01:07:52.402Z,12.60
2018-04-18T01:08:57.903Z,12.62
2018-04-18T01:10:03.427Z,12.66
2018-04-18T01:11:08.935Z,12.57
2018-04-18T01:12:14.447Z,12.51
2018-04-18T01:13:19.965Z,12.59
2018-04-18T01:14:25.486Z,12.63
2018-04-18T01:15:30.983Z,12.57
2018-04-18T01:16:36.499Z,12.60
2018-04-18T01:17:42.009Z,12.51
2018-04-18T01:18:47.523Z,12.51
2018-04-18T01:19:53.037Z,12.51
2018-04-18T01:20:58.551Z,12.52
2018-04-18T01:22:04.061Z,12.51
2018-04-18T01:23:09.584Z,12.52
2018-04-18T01:24:15.090Z,12.42
2018-04-18T01:25:20.602Z,12.44
2018-04-18T01:26:26.114Z,12.39
2018-04-18T01:27:31.627Z,12.44
2018-04-18T01:28:37.139Z,12.37
2018-04-18T01:29:42.652Z,12.34
2018-04-18T01:30:48.171Z,12.26
2018-04-18T01:31:53.684Z,12.37
2018-04-18T01:32:59.198Z,12.27
2018-04-18T01:34:04.703Z,12.29
2018-04-18T01:35:10.213Z,12.20
2018-04-18T01:36:15.728Z,12.30
2018-04-18T01:37:21.241Z,12.23
2018-04-18T01:38:26.750Z,12.21
2018-04-18T01:39:32.268Z,12.27
2018-04-18T01:40:37.784Z,12.29
2018-04-18T01:41:43.290Z,12.24
2018-04-18T01:42:48.806Z,12.27
2018-04-18T01:43:54.319Z,12.31
2018-04-18T01:44:59.827Z,12.23
2018-04-18T01:46:05.340Z,12.27
2018-04-18T01:47:10.857Z,12.33
2018-04-18T01:48:16.371Z,12.21
2018-04-18T01:49:21.883Z,12.31
2018-04-18T01:50:27.403Z,12.27
2018-04-18T01:51:32.904Z,12.27
2018-04-18T01:52:38.425Z,12.21
2018-04-18T01:53:43.938Z,12.31
2018-04-18T01:54:49.451Z,12.23
2018-04-18T01:55:54.955Z,12.24
2018-04-18T01:57:00.466Z,12.26
2018-04-18T01:58:05.988Z,12.29
2018-04-18T01:59:11.494Z,12.13
2018-04-18T02:00:17.007Z,12.20
2018-04-18T02:01:22.522Z,12.27
2018-04-18T02:02:28.041Z,12.23
2018-04-18T02:03:33.541Z,12.23
2018-04-18T02:04:39.058Z,12.21
2018-04-18T02:05:44.581Z,12.16
2018-04-18T02:06:50.081Z,12.20
2018-04-18T02:07:55.593Z,12.24
2018-04-18T02:09:01.121Z,12.19
2018-04-18T02:10:06.630Z,12.15
2018-04-18T02:11:12.130Z,12.11
2018-04-18T02:12:17.646Z,12.15
2018-04-18T02:13:23.162Z,12.13
2018-04-18T02:14:28.670Z,12.09
2018-04-18T02:15:34.179Z,11.99
2018-04-18T02:16:39.697Z,12.04
2018-04-18T02:17:45.210Z,12.06
2018-04-18T02:18:50.720Z,12.06
2018-04-18T02:19:56.230Z,11.99
2018-04-18T02:21:01.745Z,11.89
2018-04-18T02:22:07.257Z,11.90
2018-04-18T02:23:12.768Z,11.85
2018-04-18T02:24:18.283Z,11.87
2018-04-18T02:25:23.795Z,12.01
2018-04-18T02:26:29.317Z,11.87
2018-04-18T02:27:34.821Z,11.82
2018-04-18T02:28:40.330Z,11.90
2018-04-18T02:29:45.844Z,11.87
2018-04-18T02:30:51.355Z,11.86
2018-04-18T02:31:56.867Z,11.89
2018-04-18T02:33:02.383Z,11.89
2018-04-18T02:34:07.900Z,11.85
2018-04-18T02:35:13.404Z,11.83
2018-04-18T02:36:18.941Z,11.85
2018-04-18T02:37:24.429Z,11.87
2018-04-18T02:38:29.958Z,11.80
2018-04-18T02:39:35.460Z,11.89
2018-04-18T02:40:40.970Z,11.85
2018-04-18T02:41:46.478Z,11.85
2018-04-18T02:42:51.999Z,11.82
2018-04-18T02:43:57.502Z,11.85
2018-04-18T02:45:03.015Z,11.85
2018-04-18T02:46:08.532Z,11.85
2018-04-18T02:47:14.046Z,11.86
2018-04-18T02:48:19.556Z,11.85
2018-04-18T02:49:25.067Z,11.83
2018-04-18T02:50:30.584Z,11.83
2018-04-18T02:51:36.101Z,11.83
2018-04-18T02:52:41.603Z,11.83
2018-04-18T02:53:47.120Z,11.89
2018-04-18T02:54:52.625Z,11.71
2018-04-18T02:55:58.140Z,11.82
2018-04-18T02:57:03.652Z,11.68
2018-04-18T02:58:09.168Z,11.74
2018-04-18T02:59:14.677Z,11.64
2018-04-18T03:00:20.197Z,11.71
2018-04-18T03:01:25.707Z,11.83
2018-04-18T03:02:31.223Z,11.72
2018-04-18T03:03:36.732Z,11.68
2018-04-18T03:04:42.244Z,11.85
2018-04-18T03:05:47.754Z,11.94
2018-04-18T03:06:53.267Z,11.96
2018-04-18T03:07:58.774Z,12.04
2018-04-18T03:09:04.288Z,12.06
2018-04-18T03:10:09.798Z,12.01
2018-04-18T03:11:15.311Z,12.06
2018-04-18T03:12:20.825Z,12.09
2018-04-18T03:13:26.337Z,12.08
2018-04-18T03:14:31.850Z,12.12
2018-04-18T03:15:37.366Z,12.11
2018-04-18T03:16:42.880Z,12.05
2018-04-18T03:17:48.386Z,12.02
2018-04-18T03:18:53.897Z,12.06
2018-04-18T03:19:59.415Z,12.05
2018-04-18T03:21:04.923Z,12.06
2018-04-18T03:22:10.434Z,12.06
2018-04-18T03:23:15.949Z,11.99
2018-04-18T03:24:21.457Z,12.04
2018-04-18T03:25:26.978Z,11.99
2018-04-18T03:26:32.497Z,12.05
2018-04-18T03:27:37.998Z,12.09
2018-04-18T03:28:43.508Z,12.11
2018-04-18T03:29:49.026Z,12.08
2018-04-18T03:30:54.539Z,12.06
2018-04-18T03:32:00.051Z,11.97
2018-04-18T03:33:05.560Z,12.01
2018-04-18T03:34:11.072Z,12.05
2018-04-18T03:35:16.592Z,12.05
2018-04-18T03:36:22.100Z,11.93
2018-04-18T03:37:27.606Z,11.94
2018-04-18T03:38:33.126Z,11.89
2018-04-18T03:39:38.638Z,11.86
2018-04-18T03:40:44.172Z,11.93
2018-04-18T03:41:49.660Z,11.94
2018-04-18T03:42:55.168Z,11.97
2018-04-18T03:44:00.681Z,11.93
2018-04-18T03:45:06.195Z,11.87
2018-04-18T03:46:11.711Z,11.89
2018-04-18T03:47:17.218Z,11.87
2018-04-18T03:48:22.737Z,11.86
2018-04-18T03:49:28.246Z,11.87
2018-04-18T03:50:33.759Z,11.86
2018-04-18T03:51:39.269Z,11.89
2018-04-18T03:52:44.787Z,11.86
2018-04-18T03:53:50.297Z,11.89
2018-04-18T03:54:55.807Z,11.85
2018-04-18T03:56:01.317Z,11.82
2018-04-18T03:57:06.830Z,11.75
2018-04-18T03:58:12.343Z,11.78
2018-04-18T03:59:17.886Z,11.74
2018-04-18T04:00:23.368Z,11.71
2018-04-18T04:01:28.882Z,11.74
2018-04-18T04:02:34.440Z,11.67
2018-04-18T04:03:39.907Z,11.71
2018-04-18T04:04:45.417Z,11.67
2018-04-18T04:05:50.928Z,11.61
2018-04-18T04:06:56.446Z,11.56
2018-04-18T04:08:01.958Z,11.57
2018-04-18T04:09:07.475Z,11.59
2018-04-18T04:10:12.976Z,11.52
2018-04-18T04:11:18.495Z,11.49
2018-04-18T04:12:24.008Z,11.59
2018-04-18T04:13:29.513Z,11.53
2018-04-18T04:14:35.024Z,11.56
2018-04-18T04:15:40.535Z,11.52
2018-04-18T04:16:46.048Z,11.50
2018-04-18T04:17:51.569Z,11.46
2018-04-18T04:18:57.077Z,11.54
2018-04-18T04:20:02.584Z,11.43
2018-04-18T04:21:08.097Z,11.43
2018-04-18T04:22:13.609Z,11.52
2018-04-18T04:23:19.120Z,11.39
2018-04-18T04:24:24.635Z,11.39
2018-04-18T04:25:30.147Z,11.46
2018-04-18T04:26:35.660Z,11.35
2018-04-18T04:27:41.167Z,11.39
2018-04-18T04:28:46.682Z,11.36
2018-04-18T04:29:52.276Z,11.35
2018-04-18T04:30:57.707Z,11.38
2018-04-18T04:32:03.224Z,11.38
2018-04-18T04:33:08.731Z,11.41
2018-04-18T04:34:14.242Z,11.39
2018-04-18T04:35:19.764Z,11.39
2018-04-18T04:36:25.298Z,11.41
2018-04-18T04:37:30.788Z,11.32
2018-04-18T04:38:36.296Z,11.36
2018-04-18T04:39:41.803Z,11.27
2018-04-18T04:40:47.318Z,11.28
2018-04-18T04:41:52.827Z,11.32
2018-04-18T04:42:58.337Z,11.27
2018-04-18T04:44:03.854Z,11.29
2018-04-18T04:45:09.369Z,11.27
2018-04-18T04:46:14.875Z,11.34
2018-04-18T04:47:20.388Z,11.34
2018-04-18T04:48:25.905Z,11.34
2018-04-18T04:49:31.411Z,11.27
2018-04-18T04:50:36.923Z,11.35
2018-04-18T04:51:42.439Z,11.27
2018-04-18T04:52:47.944Z,11.25
2018-04-18T04:53:53.461Z,11.27
2018-04-18T04:54:58.971Z,11.27
2018-04-18T04:56:04.493Z,11.29
2018-04-18T04:57:10.005Z,11.29
2018-04-18T04:58:15.508Z,11.29
2018-04-18T04:59:21.024Z,11.29
2018-04-18T05:00:26.532Z,11.31
2018-04-18T05:01:32.048Z,11.34
2018-04-18T05:02:37.563Z,11.36
2018-04-18T05:03:43.071Z,11.35
2018-04-18T05:04:48.588Z,11.35
2018-04-18T05:05:54.095Z,11.39
2018-04-18T05:06:59.601Z,11.34
2018-04-18T05:08:05.119Z,11.36
2018-04-18T05:09:10.641Z,11.38
2018-04-18T05:10:16.291Z,11.34
2018-04-18T05:11:21.652Z,11.36
2018-04-18T05:12:27.211Z,11.34
2018-04-18T05:13:32.695Z,11.35
2018-04-18T05:14:38.188Z,11.39
2018-04-18T05:15:43.761Z,11.35
2018-04-18T05:16:49.218Z,11.41
2018-04-18T05:17:54.741Z,11.36
2018-04-18T05:19:00.233Z,11.39
2018-04-18T05:20:05.758Z,11.38
2018-04-18T05:21:11.308Z,11.39
2018-04-18T05:22:16.771Z,11.44
2018-04-18T05:23:22.293Z,11.38
2018-04-18T05:24:27.794Z,11.36
2018-04-18T05:25:33.307Z,11.39
2018-04-18T05:26:38.823Z,11.41
2018-04-18T05:27:44.337Z,11.50
2018-04-18T05:28:49.844Z,11.47
2018-04-18T05:29:55.354Z,11.46
2018-04-18T05:31:00.872Z,11.49
2018-04-18T05:32:06.379Z,11.47
2018-04-18T05:33:11.889Z,11.53
2018-04-18T05:34:17.405Z,11.56
2018-04-18T05:35:22.932Z,11.56
2018-04-18T05:36:28.428Z,11.52
2018-04-18T05:37:33.938Z,11.59
2018-04-18T05:38:39.449Z,11.59
2018-04-18T05:39:44.973Z,11.65
2018-04-18T05:40:50.483Z,11.61
2018-04-18T05:41:55.985Z,11.75
2018-04-18T05:43:01.505Z,11.64
2018-04-18T05:44:07.011Z,11.70
2018-04-18T05:45:12.558Z,11.77
2018-04-18T05:46:18.045Z,11.87
2018-04-18T05:47:23.550Z,11.82
2018-04-18T05:48:29.082Z,11.82
2018-04-18T05:49:34.568Z,11.89
2018-04-18T05:50:40.088Z,11.94
2018-04-18T05:51:45.600Z,11.97
2018-04-18T05:52:51.126Z,11.99
2018-04-18T05:53:56.646Z,11.99
2018-04-18T05:55:02.139Z,12.02
2018-04-18T05:56:07.655Z,12.11
2018-04-18T05:57:13.157Z,12.12
2018-04-18T05:58:18.670Z,12.19
2018-04-18T05:59:24.194Z,12.20
2018-04-18T06:00:29.692Z,12.24
2018-04-18T06:01:35.209Z,12.31
2018-04-18T06:02:40.717Z,12.27
2018-04-18T06:03:46.235Z,12.27
2018-04-18T06:04:51.834Z,12.34
2018-04-18T06:05:57.255Z,12.34
2018-04-18T06:07:02.769Z,12.37
2018-04-18T06:08:08.288Z,12.45
2018-04-18T06:09:13.797Z,12.51
2018-04-18T06:10:19.309Z,12.57
2018-04-18T06:11:24.819Z,12.59
2018-04-18T06:12:30.337Z,12.57
2018-04-18T06:13:35.852Z,12.64
2018-04-18T06:14:41.360Z,12.67
2018-04-18T06:15:46.868Z,12.71
2018-04-18T06:16:52.382Z,12.82
2018-04-18T06:17:57.895Z,12.81
2018-04-18T06:19:03.415Z,12.87
2018-04-18T06:20:08.924Z,12.92
2018-04-18T06:21:14.434Z,12.95
2018-04-18T06:22:19.951Z,12.99
2018-04-18T06:23:25.469Z,13.03
2018-04-18T06:24:30.980Z,13.09
2018-04-18T06:25:36.486Z,13.11
2018-04-18T06:26:41.998Z,13.20
2018-04-18T06:27:47.508Z,13.24
2018-04-18T06:28:53.028Z,13.25
2018-04-18T06:29:58.539Z,13.38
2018-04-18T06:31:04.050Z,13.38
2018-04-18T06:32:09.560Z,13.37
2018-04-18T06:33:15.081Z,13.41
2018-04-18T06:34:20.589Z,13.49
2018-04-18T06:35:26.196Z,13.58
2018-04-18T06:36:31.619Z,13.55
2018-04-18T06:37:37.136Z,13.62
2018-04-18T06:38:42.640Z,13.63
2018-04-18T06:39:48.152Z,13.70
2018-04-18T06:40:53.672Z,13.79
2018-04-18T06:41:59.180Z,13.87
2018-04-18T06:43:04.700Z,13.81
2018-04-18T06:44:10.215Z,13.91
2018-04-18T06:45:15.718Z,13.99
2018-04-18T06:46:21.234Z,13.94
2018-04-18T06:47:26.749Z,14.06
2018-04-18T06:48:32.259Z,14.09
2018-04-18T06:49:37.775Z,14.12
2018-04-18T06:50:43.290Z,14.21
2018-04-18T06:51:48.802Z,14.24
2018-04-18T06:52:54.315Z,14.37
2018-04-18T06:53:59.827Z,14.32
2018-04-18T06:55:05.338Z,14.35
2018-04-18T06:56:10.870Z,14.39
2018-04-18T06:57:16.369Z,14.44
2018-04-18T06:58:21.907Z,14.52
2018-04-18T06:59:27.401Z,14.56
2018-04-18T07:00:32.926Z,14.61
2018-04-18T07:01:38.430Z,14.56
2018-04-18T07:02:43.940Z,14.67
2018-04-18T07:03:49.530Z,14.83
2018-04-18T07:04:54.966Z,14.81
2018-04-18T07:06:00.478Z,14.83
2018-04-18T07:07:06.040Z,14.94
2018-04-18T07:08:11.534Z,14.95
2018-04-18T07:09:17.026Z,14.98
2018-04-18T07:10:22.549Z,15.03
2018-04-18T07:11:28.050Z,15.13
2018-04-18T07:12:33.576Z,15.15
2018-04-18T07:13:39.080Z,15.24
2018-04-18T07:14:44.597Z,15.24
2018-04-18T07:15:50.106Z,15.35
2018-04-18T07:16:55.633Z,15.46
2018-04-18T07:18:01.141Z,15.54
2018-04-18T07:19:06.732Z,15.59
2018-04-18T07:20:12.170Z,15.67
2018-04-18T07:21:17.678Z,15.82
2018-04-18T07:22:23.197Z,15.85
2018-04-18T07:23:28.710Z,15.92
2018-04-18T07:24:34.232Z,15.94
2018-04-18T07:25:39.743Z,16.09
2018-04-18T07:26:45.258Z,16.14
2018-04-18T07:27:50.766Z,16.14
2018-04-18T07:28:56.283Z,16.26
2018-04-18T07:30:01.808Z,16.26
2018-04-18T07:31:07.311Z,16.41
2018-04-18T07:32:12.883Z,16.40
2018-04-18T07:33:18.341Z,16.56
2018-04-18T07:34:23.959Z,16.65
2018-04-18T07:35:29.370Z,16.67
2018-04-18T07:36:34.889Z,16.71
2018-04-18T07:37:40.449Z,16.77
2018-04-18T07:38:45.920Z,16.92
2018-04-18T07:39:51.435Z,17.00
2018-04-18T07:40:56.961Z,17.06
2018-04-18T07:42:02.468Z,17.15
2018-04-18T07:43:07.978Z,17.26
2018-04-18T07:44:13.492Z,17.26
2018-04-18T07:45:19.005Z,17.44
2018-04-18T07:46:24.524Z,17.43
2018-04-18T07:47:30.051Z,17.53
2018-04-18T07:48:35.564Z,17.66
2018-04-18T07:49:41.069Z,17.74
2018-04-18T07:50:46.590Z,17.85
2018-04-18T07:51:52.108Z,17.91
2018-04-18T07:52:57.650Z,17.91
2018-04-18T07:54:03.139Z,17.99
2018-04-18T07:55:08.653Z,18.04
2018-04-18T07:56:14.161Z,18.19
2018-04-18T07:57:19.680Z,18.10
2018-04-18T07:58:25.200Z,18.27
2018-04-18T07:59:30.716Z,18.29
2018-04-18T08:00:36.226Z,18.39
2018-04-18T08:01:41.752Z,18.44
2018-04-18T08:02:47.270Z,18.44
2018-04-18T08:03:52.777Z,18.58
2018-04-18T08:04:58.300Z,18.52
2018-04-18T08:06:03.807Z,18.68
2018-04-18T08:07:09.488Z,18.72
2018-04-18T08:08:14.841Z,18.80
2018-04-18T08:09:20.362Z,18.87
2018-04-18T08:10:25.880Z,18.87
2018-04-18T08:11:31.388Z,18.95
2018-04-18T08:12:36.908Z,18.95
2018-04-18T08:13:42.439Z,19.01
2018-04-18T08:14:47.950Z,19.15
2018-04-18T08:15:53.469Z,19.15
2018-04-18T08:16:58.973Z,19.32
2018-04-18T08:18:04.490Z,19.35
2018-04-18T08:19:10.014Z,19.42
2018-04-18T08:20:15.525Z,19.46
2018-04-18T08:21:21.044Z,19.47
2018-04-18T08:22:26.556Z,19.50
2018-04-18T08:23:32.079Z,19.65
2018-04-18T08:24:37.591Z,19.63
2018-04-18T08:25:43.151Z,19.63
2018-04-18T08:26:48.625Z,19.86
2018-04-18T08:27:54.144Z,19.79
2018-04-18T08:28:59.661Z,19.79
2018-04-18T08:30:05.175Z,19.80
2018-04-18T08:31:10.697Z,19.90
2018-04-18T08:32:16.211Z,19.94
2018-04-18T08:33:21.731Z,19.93
2018-04-18T08:34:27.253Z,19.98
2018-04-18T08:35:32.773Z,20.15
2018-04-18T08:36:38.281Z,20.10
2018-04-18T08:37:43.799Z,20.16
2018-04-18T08:38:49.320Z,20.15
2018-04-18T08:39:54.836Z,20.34
2018-04-18T08:41:00.347Z,20.31
2018-04-18T08:42:05.867Z,20.41
2018-04-18T08:43:11.395Z,20.43
2018-04-18T08:44:16.905Z,20.50
2018-04-18T08:45:22.430Z,20.53
2018-04-18T08:46:27.942Z,20.53
2018-04-18T08:47:33.453Z,20.68
2018-04-18T08:48:38.974Z,20.69
2018-04-18T08:49:44.490Z,20.74
2018-04-18T08:50:50.018Z,20.84
2018-04-18T08:51:55.527Z,20.77
2018-04-18T08:53:01.046Z,20.91
2018-04-18T08:54:06.559Z,20.86
2018-04-18T08:55:12.076Z,20.95
2018-04-18T08:56:17.602Z,20.91
2018-04-18T08:57:23.113Z,21.02
2018-04-18T08:58:28.633Z,21.08
2018-04-18T08:59:34.150Z,21.11
2018-04-18T09:00:39.668Z,21.13
2018-04-18T09:01:45.187Z,21.20
2018-04-18T09:02:50.713Z,21.26
2018-04-18T09:03:56.221Z,21.35
2018-04-18T09:05:01.746Z,21.39
2018-04-18T09:06:07.257Z,21.38
2018-04-18T09:07:12.790Z,21.30
2018-04-18T09:08:18.296Z,21.44
2018-04-18T09:09:23.809Z,21.42
2018-04-18T09:10:29.333Z,21.48
2018-04-18T09:11:34.847Z,21.54
2018-04-18T09:12:40.368Z,21.59
2018-04-18T09:13:45.882Z,21.61
2018-04-18T09:14:51.411Z,21.63
2018-04-18T09:15:56.924Z,21.71
2018-04-18T09:17:02.454Z,21.72
2018-04-18T09:18:07.968Z,21.75
2018-04-18T09:19:13.480Z,21.79
2018-04-18T09:20:19.001Z,21.82
2018-04-18T09:21:24.523Z,21.91
2018-04-18T09:22:30.036Z,21.92
2018-04-18T09:23:35.551Z,21.95
2018-04-18T09:24:41.069Z,22.04
2018-04-18T09:25:46.589Z,22.06
2018-04-18T09:26:52.108Z,22.07
2018-04-18T09:27:57.622Z,22.17
2018-04-18T09:29:03.142Z,22.22
2018-04-18T09:30:08.668Z,22.27
2018-04-18T09:31:14.178Z,22.29
2018-04-18T09:32:19.701Z,22.39
2018-04-18T09:33:25.218Z,22.37
2018-04-18T09:34:30.738Z,22.38
2018-04-18T09:35:36.258Z,22.50
2018-04-18T09:36:41.785Z,22.44
2018-04-18T09:37:47.398Z,22.52
2018-04-18T09:38:52.809Z,22.57
2018-04-18T09:39:58.329Z,22.41
2018-04-18T09:41:03.847Z,22.64
2018-04-18T09:42:09.369Z,22.68
2018-04-18T09:43:14.890Z,22.71
2018-04-18T09:44:20.409Z,22.68
2018-04-18T09:45:25.931Z,22.71
2018-04-18T09:46:31.445Z,22.69
2018-04-18T09:47:36.967Z,22.71
2018-04-18T09:48:42.490Z,22.72
2018-04-18T09:49:48.004Z,22.83
2018-04-18T09:50:53.537Z,22.82
2018-04-18T09:51:59.040Z,22.87
2018-04-18T09:53:04.564Z,22.87
2018-04-18T09:54:10.079Z,22.94
2018-04-18T09:55:15.598Z,22.96
2018-04-18T09:56:21.123Z,22.94
2018-04-18T09:57:26.636Z,23.14
2018-04-18T09:58:32.227Z,23.17
2018-04-18T09:59:37.680Z,23.17
2018-04-18T10:00:43.192Z,23.24
2018-04-18T10:01:48.716Z,23.29
2018-04-18T10:02:54.235Z,23.38
2018-04-18T10:03:59.753Z,23.39
2018-04-18T10:05:05.278Z,23.45
2018-04-18T10:06:10.796Z,23.42
2018-04-18T10:07:16.322Z,23.50
2018-04-18T10:08:21.827Z,23.43
2018-04-18T10:09:27.345Z,23.47
2018-04-18T10:10:32.874Z,23.52
2018-04-18T10:11:38.389Z,23.52
2018-04-18T10:12:43.908Z,23.53
2018-04-18T10:13:49.431Z,23.60
2018-04-18T10:14:54.946Z,23.53
2018-04-18T10:16:00.483Z,23.64
2018-04-18T10:17:05.991Z,23.60
2018-04-18T10:18:11.509Z,23.67
2018-04-18T10:19:17.039Z,23.77
2018-04-18T10:20:22.548Z,23.70
2018-04-18T10:21:28.070Z,23.75
2018-04-18T10:22:33.606Z,23.76
2018-04-18T10:23:39.103Z,23.76
2018-04-18T10:24:44.624Z,23.79
2018-04-18T10:25:50.144Z,23.89
2018-04-18T10:26:55.672Z,23.95
2018-04-18T10:28:01.184Z,23.97
2018-04-18T10:29:06.703Z,24.05
2018-04-18T10:30:12.222Z,24.07
2018-04-18T10:31:17.750Z,24.16
2018-04-18T10:32:23.291Z,24.14
2018-04-18T10:33:28.780Z,24.17
2018-04-18T10:34:34.298Z,24.26
2018-04-18T10:35:39.953Z,24.34
2018-04-18T10:36:45.338Z,24.32
2018-04-18T10:37:50.901Z,24.41
2018-04-18T10:38:56.384Z,24.49
2018-04-18T10:40:01.913Z,24.44
2018-04-18T10:41:07.468Z,24.63
2018-04-18T10:42:12.939Z,24.63
2018-04-18T10:43:18.493Z,24.71
2018-04-18T10:44:23.989Z,24.73
2018-04-18T10:45:29.508Z,24.71
2018-04-18T10:46:35.021Z,24.71
2018-04-18T10:47:40.547Z,24.73
2018-04-18T10:48:46.060Z,24.73
2018-04-18T10:49:51.591Z,24.85
2018-04-18T10:50:57.101Z,24.98
2018-04-18T10:52:02.626Z,25.01
2018-04-18T10:53:08.149Z,25.00
2018-04-18T10:54:13.665Z,25.15
2018-04-18T10:55:19.183Z,25.27
2018-04-18T10:56:24.722Z,25.27
2018-04-18T10:57:30.225Z,25.31
2018-04-18T10:58:35.822Z,25.35
2018-04-18T10:59:41.264Z,25.32
2018-04-18T11:00:46.787Z,25.35
2018-04-18T11:01:52.315Z,25.47
2018-04-18T11:02:57.826Z,25.35
2018-04-18T11:04:03.351Z,25.46
2018-04-18T11:05:08.880Z,25.47
2018-04-18T11:06:14.388Z,25.43
2018-04-18T11:07:19.921Z,25.44
2018-04-18T11:08:25.445Z,25.54
2018-04-18T11:09:30.970Z,25.43
2018-04-18T11:10:36.475Z,25.56
2018-04-18T11:11:41.998Z,25.46
2018-04-18T11:12:47.519Z,25.61
2018-04-18T11:13:53.035Z,25.54
2018-04-18T11:14:58.552Z,25.53
2018-04-18T11:16:04.084Z,25.68
2018-04-18T11:17:09.595Z,25.67
2018-04-18T11:18:15.127Z,25.75
2018-04-18T11:19:20.637Z,25.77
2018-04-18T11:20:26.155Z,25.68
2018-04-18T11:21:31.676Z,25.72
2018-04-18T11:22:37.197Z,25.75
2018-04-18T11:23:42.718Z,25.86
2018-04-18T11:24:48.249Z,25.86
2018-04-18T11:25:53.770Z,25.79
2018-04-18T11:26:59.304Z,25.82
2018-04-18T11:28:04.805Z,25.84
2018-04-18T11:29:10.328Z,25.84
2018-04-18T11:30:15.848Z,25.87
2018-04-18T11:31:21.367Z,25.89
2018-04-18T11:32:26.890Z,25.94
2018-04-18T11:33:32.408Z,26.01
2018-04-18T11:34:37.937Z,26.01
2018-04-18T11:35:43.452Z,25.94
2018-04-18T11:36:48.976Z,26.05
2018-04-18T11:37:54.497Z,26.11
2018-04-18T11:39:00.024Z,26.11
2018-04-18T11:40:05.538Z,26.17
2018-04-18T11:41:11.057Z,26.18
2018-04-18T11:42:16.578Z,26.22
2018-04-18T11:43:22.098Z,26.24
2018-04-18T11:44:27.620Z,26.27
2018-04-18T11:45:33.191Z,26.37
2018-04-18T11:46:38.665Z,26.37
2018-04-18T11:47:44.182Z,26.35
2018-04-18T11:48:49.726Z,26.35
2018-04-18T11:49:55.225Z,26.39
2018-04-18T11:51:00.748Z,26.42
2018-04-18T11:52:06.268Z,26.42
2018-04-18T11:53:11.790Z,26.49
2018-04-18T11:54:17.310Z,26.61
2018-04-18T11:55:22.847Z,26.61
2018-04-18T11:56:28.362Z,26.62
2018-04-18T11:57:33.897Z,26.69
2018-04-18T11:58:39.397Z,26.77
2018-04-18T11:59:44.919Z,26.80
2018-04-18T12:00:50.437Z,26.91
2018-04-18T12:01:55.964Z,26.96
2018-04-18T12:03:01.485Z,27.02
2018-04-18T12:04:07.007Z,27.05
2018-04-18T12:05:12.532Z,27.11
2018-04-18T12:06:18.054Z,27.05
2018-04-18T12:07:23.567Z,27.14
2018-04-18T12:08:29.089Z,27.21
2018-04-18T12:09:34.619Z,27.13
2018-04-18T12:10:40.144Z,27.14
2018-04-18T12:11:45.656Z,27.14
2018-04-18T12:12:51.178Z,27.21
2018-04-18T12:13:56.698Z,27.23
2018-04-18T12:15:02.225Z,27.16
2018-04-18T12:16:07.749Z,27.10
2018-04-18T12:17:13.280Z,27.21
2018-04-18T12:18:18.787Z,27.14
2018-04-18T12:19:24.313Z,27.16
2018-04-18T12:20:29.837Z,27.21
2018-04-18T12:21:35.354Z,27.20
2018-04-18T12:22:40.881Z,27.17
2018-04-18T12:23:46.394Z,27.24
2018-04-18T12:24:51.924Z,27.33
2018-04-18T12:25:57.443Z,27.29
2018-04-18T12:27:02.962Z,27.31
2018-04-18T12:28:08.486Z,27.41
2018-04-18T12:29:14.002Z,27.47
2018-04-18T12:30:19.528Z,27.38
2018-04-18T12:31:25.060Z,27.53
2018-04-18T12:32:30.578Z,27.58
2018-04-18T12:33:36.113Z,27.61
2018-04-18T12:34:41.629Z,27.62
2018-04-18T12:35:47.139Z,27.67
2018-04-18T12:36:52.661Z,27.69
2018-04-18T12:37:58.238Z,27.70
2018-04-18T12:39:03.702Z,27.66
2018-04-18T12:40:09.228Z,27.69
2018-04-18T12:41:14.787Z,27.70
2018-04-18T12:42:20.278Z,27.77
2018-04-18T12:43:25.793Z,27.77
2018-04-18T12:44:31.314Z,27.71
2018-04-18T12:45:36.841Z,27.84
2018-04-18T12:46:42.360Z,27.80
2018-04-18T12:47:47.880Z,27.79
2018-04-18T12:48:53.406Z,27.79
2018-04-18T12:49:58.930Z,27.91
2018-04-18T12:51:04.456Z,27.85
2018-04-18T12:52:09.968Z,27.96
2018-04-18T12:53:15.505Z,27.92
2018-04-18T12:54:21.026Z,27.94
2018-04-18T12:55:26.544Z,27.89
2018-04-18T12:56:32.057Z,27.94
2018-04-18T12:57:37.641Z,27.92
2018-04-18T12:58:43.100Z,27.95
2018-04-18T12:59:48.631Z,27.86
2018-04-18T13:00:54.149Z,27.89
2018-04-18T13:01:59.668Z,27.84
2018-04-18T13:03:05.207Z,27.79
2018-04-18T13:04:10.724Z,27.80
2018-04-18T13:05:16.244Z,27.84
2018-04-18T13:06:21.762Z,27.80
2018-04-18T13:07:27.290Z,27.76
2018-04-18T13:08:32.807Z,27.77
2018-04-18T13:09:38.324Z,27.85
2018-04-18T13:10:43.875Z,27.82
2018-04-18T13:11:49.379Z,27.84
2018-04-18T13:12:54.898Z,27.92
2018-04-18T13:14:00.413Z,27.91
2018-04-18T13:15:05.936Z,27.91
2018-04-18T13:16:11.464Z,27.86
2018-04-18T13:17:16.990Z,27.88
2018-04-18T13:18:22.565Z,27.95
2018-04-18T13:19:28.027Z,27.95
2018-04-18T13:20:33.555Z,27.91
2018-04-18T13:21:39.075Z,28.07
2018-04-18T13:22:44.604Z,27.95
2018-04-18T13:23:50.117Z,28.04
2018-04-18T13:24:55.643Z,27.95
2018-04-18T13:26:01.233Z,28.10
2018-04-18T13:27:06.691Z,28.10
2018-04-18T13:28:12.215Z,28.16
2018-04-18T13:29:17.745Z,28.21
2018-04-18T13:30:23.253Z,28.22
2018-04-18T13:31:28.778Z,28.25
2018-04-18T13:32:34.300Z,28.21
2018-04-18T13:33:39.828Z,28.26
2018-04-18T13:34:45.343Z,28.28
2018-04-18T13:35:50.867Z,28.38
2018-04-18T13:36:56.392Z,28.33
2018-04-18T13:38:01.906Z,28.38
2018-04-18T13:39:07.436Z,28.47
2018-04-18T13:40:12.951Z,28.56
2018-04-18T13:41:18.475Z,28.58
2018-04-18T13:42:23.998Z,28.68
2018-04-18T13:43:29.527Z,28.78
2018-04-18T13:44:35.048Z,29.01
2018-04-18T13:45:40.575Z,29.11
2018-04-18T13:46:46.089Z,29.29
2018-04-18T13:47:51.629Z,29.50
2018-04-18T13:48:57.149Z,29.75
2018-04-18T13:50:02.663Z,29.84
2018-04-18T13:51:08.199Z,29.99
2018-04-18T13:52:13.707Z,29.84
2018-04-18T13:53:19.227Z,29.65
2018-04-18T13:54:24.750Z,29.40
2018-04-18T13:55:30.299Z,29.13
2018-04-18T13:56:35.793Z,29.07
2018-04-18T13:57:41.324Z,28.91
2018-04-18T13:58:46.845Z,28.63
2018-04-18T13:59:52.374Z,28.62
2018-04-18T14:00:57.884Z,28.46
2018-04-18T14:02:03.407Z,28.43
2018-04-18T14:03:08.931Z,28.29